Time;durP1;ratioP1;P1;durP2;ratioP2;P2;SDS_P1;SDS_P2;PMS_P1;PMS_P2;Temp;Humidity;BMP_temperature;BMP_pressure;BME280_temperature;BME280_humidity;BME280_pressure;Samples;Min_cycle;Max_cycle;Signal;HPM_P1;HPM_P2
2023/10/03 00:01:02;;;;;;;21.55;7.20;;;;;;;;;;6122437;23;20001;-77
2023/10/03 00:03:28;;;;;;;18.05;6.15;;;;;;;;;;6123155;23;20002;-77
2023/10/03 00:05:54;;;;;;;15.45;6.22;;;;;;;;;;6122815;23;20010;-78
2023/10/03 00:08:21;;;;;;;12.57;5.72;;;;;;;;;;6122752;23;20164;-78
2023/10/03 00:10:46;;;;;;;18.38;6.20;;;;;;;;;;6097770;23;20013;-77
2023/10/03 00:13:12;;;;;;;18.95;6.68;;;;;;;;;;6125489;23;20006;-78
2023/10/03 00:15:49;;;;;;;16.98;6.82;;;;;;;;;;6099307;23;20013;-76
2023/10/03 00:18:15;;;;;;;17.48;6.18;;;;;;;;;;6125299;23;20043;-79
2023/10/03 00:20:42;;;;;;;18.90;6.53;;;;;;;;;;6113646;23;20068;-77
2023/10/03 00:23:08;;;;;;;16.75;6.93;;;;;;;;;;6110872;23;20044;-77
2023/10/03 00:25:35;;;;;;;14.90;6.22;;;;;;;;;;6135317;23;20005;-78
2023/10/03 00:28:01;;;;;;;15.68;6.47;;;;;;;;;;6133178;23;20331;-79
2023/10/03 00:30:29;;;;;;;14.35;5.88;;;;;;;;;;6100191;23;20014;-77
2023/10/03 00:32:58;;;;;;;13.05;5.70;;;;;;;;;;6124751;23;20418;-78
2023/10/03 00:35:26;;;;;;;16.92;6.40;;;;;;;;;;6124540;23;20453;-78
2023/10/03 00:37:53;;;;;;;15.80;6.10;;;;;;;;;;6074101;23;20017;-78
2023/10/03 00:42:50;;;;;;;13.32;5.47;;;;;;;;;;6098139;23;20010;-79
2023/10/03 00:45:21;;;;;;;15.88;6.55;;;;;;;;;;6124497;23;20110;-78
2023/10/03 00:48:00;;;;;;;15.52;5.75;;;;;;;;;;6097978;23;20089;-78
2023/10/03 00:50:28;;;;;;;16.13;5.78;;;;;;;;;;6074796;23;20446;-78
2023/10/03 00:52:55;;;;;;;17.17;5.63;;;;;;;;;;6098631;23;20029;-78
2023/10/03 00:55:33;;;;;;;15.50;6.28;;;;;;;;;;6125670;23;20010;-76
2023/10/03 00:58:07;;;;;;;15.13;5.88;;;;;;;;;;6102673;23;20041;-78
2023/10/03 01:00:57;;;;;;;20.08;6.05;;;;;;;;;;6104986;23;20009;-77
2023/10/03 01:03:30;;;;;;;16.63;5.35;;;;;;;;;;6136230;23;20013;-76
2023/10/03 01:05:58;;;;;;;14.93;5.97;;;;;;;;;;6135441;23;20081;-77
2023/10/03 01:08:25;;;;;;;16.50;6.05;;;;;;;;;;6100440;23;20481;-77
2023/10/03 01:10:51;;;;;;;19.58;6.63;;;;;;;;;;6101692;23;20068;-77
2023/10/03 01:13:19;;;;;;;17.67;6.30;;;;;;;;;;6097926;23;20025;-78
2023/10/03 01:15:57;;;;;;;15.55;6.28;;;;;;;;;;6123891;23;20081;-78
2023/10/03 01:18:31;;;;;;;16.92;5.82;;;;;;;;;;6099747;23;20617;-78
2023/10/03 01:21:00;;;;;;;15.32;5.85;;;;;;;;;;6123814;23;20293;-73
2023/10/03 01:23:34;;;;;;;17.02;6.22;;;;;;;;;;6097733;23;20009;-74
2023/10/03 01:26:00;;;;;;;17.92;6.35;;;;;;;;;;6097928;23;20001;-74
2023/10/03 01:28:26;;;;;;;21.90;6.50;;;;;;;;;;6097430;23;20008;-74
2023/10/03 01:30:52;;;;;;;13.07;5.47;;;;;;;;;;6123097;23;20005;-74
2023/10/03 01:33:17;;;;;;;16.50;6.00;;;;;;;;;;6123734;23;20400;-74
2023/10/03 01:35:43;;;;;;;20.88;6.38;;;;;;;;;;6097100;23;20010;-73
2023/10/03 01:38:09;;;;;;;13.20;6.80;;;;;;;;;;6098055;23;20014;-75
2023/10/03 01:40:35;;;;;;;17.20;6.15;;;;;;;;;;6123873;23;20427;-72
2023/10/03 01:43:02;;;;;;;17.20;5.22;;;;;;;;;;6123334;23;20005;-73
2023/10/03 01:45:32;;;;;;;15.23;6.13;;;;;;;;;;6123767;23;20025;-75
2023/10/03 01:47:58;;;;;;;14.00;5.90;;;;;;;;;;6097531;23;20002;-75
2023/10/03 01:50:25;;;;;;;15.77;5.47;;;;;;;;;;6124288;23;20010;-75
2023/10/03 01:52:52;;;;;;;16.52;6.57;;;;;;;;;;6098026;23;20048;-73
2023/10/03 01:55:18;;;;;;;18.63;5.95;;;;;;;;;;6098298;23;20010;-74
2023/10/03 01:57:45;;;;;;;16.83;5.15;;;;;;;;;;6097080;23;20012;-75
2023/10/03 02:02:49;;;;;;;15.77;5.05;;;;;;;;;;6109568;23;20014;-74
2023/10/03 02:05:16;;;;;;;13.93;6.05;;;;;;;;;;6097839;23;20045;-73
2023/10/03 02:07:43;;;;;;;14.23;5.30;;;;;;;;;;6123758;23;20585;-72
2023/10/03 02:10:12;;;;;;;14.38;5.75;;;;;;;;;;6123578;23;20002;-74
2023/10/03 02:12:40;;;;;;;18.52;6.05;;;;;;;;;;6123357;23;20006;-73
2023/10/03 02:15:09;;;;;;;13.35;5.50;;;;;;;;;;6123292;23;20006;-74
2023/10/03 02:17:35;;;;;;;14.75;6.07;;;;;;;;;;6097213;23;20026;-73
2023/10/03 02:20:08;;;;;;;14.07;5.22;;;;;;;;;;6123338;23;20080;-73
2023/10/03 02:22:34;;;;;;;13.90;6.05;;;;;;;;;;6123324;23;20009;-73
2023/10/03 02:25:01;;;;;;;15.00;5.13;;;;;;;;;;6122912;23;20009;-74
2023/10/03 02:27:26;;;;;;;15.65;5.85;;;;;;;;;;6097198;23;20108;-73
2023/10/03 02:29:52;;;;;;;14.65;5.88;;;;;;;;;;6096859;23;20001;-74
2023/10/03 02:32:18;;;;;;;18.25;6.32;;;;;;;;;;6123587;23;20693;-74
2023/10/03 02:34:43;;;;;;;17.60;5.68;;;;;;;;;;6096945;23;20025;-73
2023/10/03 02:37:09;;;;;;;15.25;6.28;;;;;;;;;;6097051;23;20429;-74
2023/10/03 02:39:39;;;;;;;12.90;6.40;;;;;;;;;;6097346;23;20382;-72
2023/10/03 02:42:06;;;;;;;13.95;5.82;;;;;;;;;;6096269;23;20013;-73
2023/10/03 02:44:32;;;;;;;14.63;6.78;;;;;;;;;;6096552;23;20561;-73
2023/10/03 02:46:58;;;;;;;14.75;5.93;;;;;;;;;;6122804;23;20029;-75
2023/10/03 02:49:24;;;;;;;15.27;6.10;;;;;;;;;;6097357;23;20010;-77
2023/10/03 02:51:50;;;;;;;15.40;6.13;;;;;;;;;;6096583;23;20005;-78
2023/10/03 02:54:15;;;;;;;15.60;6.03;;;;;;;;;;6097187;23;20014;-78
2023/10/03 02:56:42;;;;;;;15.70;6.13;;;;;;;;;;6096648;23;20502;-76
2023/10/03 02:59:09;;;;;;;14.65;5.55;;;;;;;;;;6096297;23;20084;-78
2023/10/03 03:01:37;;;;;;;22.95;7.00;;;;;;;;;;6096716;23;20038;-76
2023/10/03 03:04:04;;;;;;;23.65;7.65;;;;;;;;;;6096488;23;20010;-76
2023/10/03 03:06:31;;;;;;;16.02;6.25;;;;;;;;;;6123173;23;20025;-77
2023/10/03 03:08:57;;;;;;;17.20;7.07;;;;;;;;;;6122751;23;20002;-77
2023/10/03 03:11:22;;;;;;;18.40;6.38;;;;;;;;;;6096304;23;20632;-77
2023/10/03 03:13:49;;;;;;;14.25;5.82;;;;;;;;;;6122328;23;20091;-77
2023/10/03 03:16:15;;;;;;;16.35;7.00;;;;;;;;;;6096708;23;20016;-78
2023/10/03 03:18:41;;;;;;;14.95;6.57;;;;;;;;;;6096667;23;20089;-77
2023/10/03 03:21:13;;;;;;;18.45;7.32;;;;;;;;;;6123277;23;20073;-78
2023/10/03 03:23:42;;;;;;;14.57;6.40;;;;;;;;;;6097261;23;20037;-77
2023/10/03 03:26:18;;;;;;;11.88;5.47;;;;;;;;;;6122618;23;20482;-77
2023/10/03 03:28:51;;;;;;;14.90;5.20;;;;;;;;;;6122760;23;20002;-77
2023/10/03 03:31:25;;;;;;;14.40;5.20;;;;;;;;;;6096550;23;20009;-79
2023/10/03 03:34:00;;;;;;;12.80;6.15;;;;;;;;;;6122541;23;20420;-77
2023/10/03 03:36:34;;;;;;;15.85;5.93;;;;;;;;;;6096058;23;20002;-78
2023/10/03 03:39:13;;;;;;;13.98;6.60;;;;;;;;;;6123166;23;20002;-77
2023/10/03 03:41:39;;;;;;;15.57;6.38;;;;;;;;;;6101860;23;20104;-77
2023/10/03 03:44:11;;;;;;;16.73;6.45;;;;;;;;;;6098200;23;20017;-78
2023/10/03 03:46:39;;;;;;;14.27;5.85;;;;;;;;;;6097691;23;20077;-78
2023/10/03 03:49:05;;;;;;;15.35;6.07;;;;;;;;;;6122514;23;20497;-78
2023/10/03 03:51:30;;;;;;;23.30;7.00;;;;;;;;;;6096901;23;20180;-77
2023/10/03 03:53:56;;;;;;;14.52;5.28;;;;;;;;;;6096425;23;20006;-77
2023/10/03 03:56:21;;;;;;;13.82;5.60;;;;;;;;;;6097163;23;20024;-78
2023/10/03 03:58:48;;;;;;;15.32;6.68;;;;;;;;;;6096708;23;20010;-78
2023/10/03 04:01:15;;;;;;;41.55;8.07;;;;;;;;;;6096327;23;20006;-79
2023/10/03 04:03:42;;;;;;;22.10;6.70;;;;;;;;;;6096268;23;20455;-79
2023/10/03 04:06:08;;;;;;;14.68;5.43;;;;;;;;;;6121989;23;20049;-78
2023/10/03 04:08:35;;;;;;;12.15;5.88;;;;;;;;;;6122429;23;20105;-78
2023/10/03 04:11:02;;;;;;;18.42;5.88;;;;;;;;;;6122553;23;20347;-78
2023/10/03 04:13:30;;;;;;;20.70;7.00;;;;;;;;;;6097192;23;20017;-77
2023/10/03 04:15:58;;;;;;;20.05;6.35;;;;;;;;;;6096362;23;20013;-77
2023/10/03 04:18:24;;;;;;;15.65;5.85;;;;;;;;;;6122492;23;20018;-78
2023/10/03 04:20:49;;;;;;;12.98;5.25;;;;;;;;;;6123059;23;20416;-78
2023/10/03 04:23:15;;;;;;;14.40;5.18;;;;;;;;;;6096561;23;20434;-78
2023/10/03 04:25:41;;;;;;;15.13;6.25;;;;;;;;;;6122594;23;20458;-76
2023/10/03 04:28:08;;;;;;;13.32;5.80;;;;;;;;;;6096349;23;20006;-78
2023/10/03 04:30:34;;;;;;;19.30;6.55;;;;;;;;;;6120782;23;20010;-74
2023/10/03 04:33:00;;;;;;;14.77;5.63;;;;;;;;;;6117462;23;20032;-75
2023/10/03 04:35:25;;;;;;;14.20;6.07;;;;;;;;;;6093473;23;20010;-74
2023/10/03 04:37:52;;;;;;;23.17;6.28;;;;;;;;;;6095754;23;20014;-75
2023/10/03 04:40:23;;;;;;;16.45;5.93;;;;;;;;;;6121745;23;20459;-75
2023/10/03 04:42:49;;;;;;;20.20;8.03;;;;;;;;;;6095923;23;20331;-75
2023/10/03 04:45:17;;;;;;;15.77;5.82;;;;;;;;;;6095129;23;20398;-74
2023/10/03 04:47:44;;;;;;;17.77;6.28;;;;;;;;;;6121988;23;20050;-75
2023/10/03 04:50:11;;;;;;;24.33;5.93;;;;;;;;;;6094683;23;20008;-75
2023/10/03 04:52:41;;;;;;;18.27;5.60;;;;;;;;;;6120594;23;20422;-74
2023/10/03 04:55:07;;;;;;;16.10;6.45;;;;;;;;;;6094606;23;20021;-74
2023/10/03 04:57:33;;;;;;;19.27;5.90;;;;;;;;;;6096414;23;20010;-74
2023/10/03 04:59:59;;;;;;;16.67;5.75;;;;;;;;;;6096730;23;20438;-75
2023/10/03 05:02:30;;;;;;;15.35;6.65;;;;;;;;;;6122459;23;20001;-74
2023/10/03 05:04:56;;;;;;;14.63;6.35;;;;;;;;;;6123626;23;20052;-74
2023/10/03 05:07:25;;;;;;;14.65;6.03;;;;;;;;;;6074360;23;20014;-76
2023/10/03 05:09:51;;;;;;;15.65;5.93;;;;;;;;;;6101318;23;20006;-73
2023/10/03 05:12:17;;;;;;;14.20;6.75;;;;;;;;;;6105672;23;20037;-76
2023/10/03 05:14:45;;;;;;;16.88;6.32;;;;;;;;;;6132129;23;20462;-74
2023/10/03 05:17:12;;;;;;;19.83;6.72;;;;;;;;;;6127851;23;20014;-76
2023/10/03 05:19:39;;;;;;;15.68;7.90;;;;;;;;;;6101329;23;20002;-78
2023/10/03 05:22:08;;;;;;;16.48;5.88;;;;;;;;;;6100012;23;20012;-77
2023/10/03 05:24:35;;;;;;;16.55;6.43;;;;;;;;;;6125527;23;20006;-76
2023/10/03 05:27:00;;;;;;;66.20;9.88;;;;;;;;;;6100205;23;20002;-75
2023/10/03 05:29:27;;;;;;;36.22;8.77;;;;;;;;;;6100752;23;20066;-76
2023/10/03 05:31:54;;;;;;;20.65;5.60;;;;;;;;;;6091465;23;20009;-76
2023/10/03 05:34:21;;;;;;;21.05;6.45;;;;;;;;;;6090830;23;20017;-76
2023/10/03 05:36:48;;;;;;;19.67;8.13;;;;;;;;;;6071354;23;20006;-76
2023/10/03 05:39:15;;;;;;;22.35;7.22;;;;;;;;;;6095648;23;20016;-77
2023/10/03 05:41:41;;;;;;;15.00;6.72;;;;;;;;;;6095210;23;20033;-77
2023/10/03 05:44:13;;;;;;;18.73;6.63;;;;;;;;;;6120585;23;20475;-76
2023/10/03 05:46:39;;;;;;;14.70;6.72;;;;;;;;;;6096867;23;20006;-79
2023/10/03 05:49:06;;;;;;;19.77;6.25;;;;;;;;;;6090984;23;20014;-76
2023/10/03 05:51:34;;;;;;;17.50;6.80;;;;;;;;;;6070193;23;20024;-76
2023/10/03 05:54:02;;;;;;;20.17;6.25;;;;;;;;;;6089659;23;20669;-76
2023/10/03 05:56:28;;;;;;;13.63;6.13;;;;;;;;;;6120401;23;20030;-78
2023/10/03 05:58:54;;;;;;;14.10;5.60;;;;;;;;;;6094579;23;20005;-76
2023/10/03 06:01:20;;;;;;;14.30;6.03;;;;;;;;;;6114581;23;20014;-76
2023/10/03 06:03:45;;;;;;;15.90;6.40;;;;;;;;;;6091819;23;20088;-76
2023/10/03 06:06:11;;;;;;;19.27;6.53;;;;;;;;;;6093933;23;20292;-74
2023/10/03 06:08:37;;;;;;;14.35;6.60;;;;;;;;;;6118918;23;20384;-74
2023/10/03 06:11:05;;;;;;;15.18;6.45;;;;;;;;;;6119231;23;20006;-73
2023/10/03 06:13:31;;;;;;;35.92;10.48;;;;;;;;;;6089726;23;20020;-74
2023/10/03 06:16:00;;;;;;;17.02;5.50;;;;;;;;;;6116284;23;20014;-74
2023/10/03 06:18:27;;;;;;;13.63;5.80;;;;;;;;;;6092531;23;20866;-76
2023/10/03 06:20:53;;;;;;;18.65;6.97;;;;;;;;;;6119568;23;20477;-74
2023/10/03 06:23:18;;;;;;;16.73;6.85;;;;;;;;;;6089771;23;20010;-75
2023/10/03 06:25:44;;;;;;;17.75;6.72;;;;;;;;;;6092147;23;20092;-73
2023/10/03 06:28:11;;;;;;;11.73;5.00;;;;;;;;;;6093627;23;20092;-76
2023/10/03 06:30:37;;;;;;;14.82;6.00;;;;;;;;;;6090942;23;20009;-75
2023/10/03 06:33:06;;;;;;;13.20;6.10;;;;;;;;;;6090659;23;20013;-75
2023/10/03 06:35:32;;;;;;;14.98;6.25;;;;;;;;;;6089019;23;20010;-76
2023/10/03 06:37:58;;;;;;;12.85;5.03;;;;;;;;;;6118071;23;20342;-73
2023/10/03 06:40:25;;;;;;;11.43;5.35;;;;;;;;;;6117543;23;20006;-76
2023/10/03 06:42:50;;;;;;;15.95;5.70;;;;;;;;;;6115841;23;20017;-75
2023/10/03 06:45:16;;;;;;;10.68;5.15;;;;;;;;;;6093186;23;20471;-75
2023/10/03 06:47:42;;;;;;;20.25;6.82;;;;;;;;;;6094180;23;20076;-78
2023/10/03 06:50:08;;;;;;;16.45;6.78;;;;;;;;;;6118364;23;20006;-76
2023/10/03 06:52:35;;;;;;;10.70;4.90;;;;;;;;;;6089810;23;20009;-75
2023/10/03 06:55:03;;;;;;;16.13;5.72;;;;;;;;;;6091524;23;20016;-73
2023/10/03 06:57:32;;;;;;;15.20;5.63;;;;;;;;;;6091508;23;20057;-72
2023/10/03 06:59:58;;;;;;;19.08;5.97;;;;;;;;;;6067843;23;20152;-75
2023/10/03 07:02:23;;;;;;;13.45;5.32;;;;;;;;;;6091123;23;20407;-74
2023/10/03 07:05:02;;;;;;;18.80;7.25;;;;;;;;;;6092562;23;20359;-76
2023/10/03 07:07:30;;;;;;;13.20;5.90;;;;;;;;;;6075062;23;20028;-75
2023/10/03 07:09:59;;;;;;;16.13;6.00;;;;;;;;;;6064325;23;20037;-75
2023/10/03 07:12:32;;;;;;;13.60;6.15;;;;;;;;;;6095519;23;20048;-78
2023/10/03 07:15:00;;;;;;;11.52;5.93;;;;;;;;;;6092107;23;20436;-77
2023/10/03 07:17:26;;;;;;;10.85;5.75;;;;;;;;;;6087106;23;20057;-75
2023/10/03 07:19:54;;;;;;;10.02;5.05;;;;;;;;;;6063552;23;20454;-78
2023/10/03 07:22:24;;;;;;;13.77;5.75;;;;;;;;;;6093451;23;20010;-78
2023/10/03 07:24:51;;;;;;;16.70;5.40;;;;;;;;;;6094517;23;20014;-78
2023/10/03 07:27:19;;;;;;;11.95;5.13;;;;;;;;;;6117740;23;20104;-77
2023/10/03 07:29:47;;;;;;;12.05;5.25;;;;;;;;;;6094652;23;20006;-75
2023/10/03 07:32:16;;;;;;;12.27;4.72;;;;;;;;;;6095158;23;20526;-78
2023/10/03 07:34:46;;;;;;;9.20;5.60;;;;;;;;;;6088262;23;20320;-74
2023/10/03 07:37:17;;;;;;;;;;;;;;;;;;6117672;23;20405;-79
2023/10/03 07:39:46;;;;;;;18.83;5.47;;;;;;;;;;6096152;23;19921;-78
2023/10/03 07:42:14;;;;;;;12.52;4.60;;;;;;;;;;6098788;23;20029;-78
2023/10/03 07:44:53;;;;;;;10.73;4.40;;;;;;;;;;6120884;23;20013;-79
2023/10/03 07:47:21;;;;;;;12.40;4.60;;;;;;;;;;6101078;23;20021;-79
2023/10/03 07:49:52;;;;;;;8.65;3.58;;;;;;;;;;6118145;23;20009;-76
2023/10/03 07:52:34;;;;;;;13.23;4.75;;;;;;;;;;6095796;23;20038;-74
2023/10/03 07:55:03;;;;;;;13.27;5.65;;;;;;;;;;6119662;23;20017;-79
2023/10/03 07:57:30;;;;;;;12.77;5.90;;;;;;;;;;6098370;23;20574;-76
2023/10/03 07:59:58;;;;;;;10.43;4.97;;;;;;;;;;6100633;23;20088;-78
2023/10/03 08:02:32;;;;;;;15.02;4.93;;;;;;;;;;6097883;23;20439;-79
2023/10/03 08:05:08;;;;;;;10.98;5.97;;;;;;;;;;6119171;23;20061;-78
2023/10/03 08:07:37;;;;;;;12.75;5.22;;;;;;;;;;6121432;23;20006;-79
2023/10/03 08:10:06;;;;;;;9.25;5.07;;;;;;;;;;6099141;23;20041;-78
2023/10/03 08:12:38;;;;;;;10.65;4.75;;;;;;;;;;6119280;23;20014;-79
2023/10/03 08:15:16;;;;;;;12.48;5.28;;;;;;;;;;6096269;23;20095;-79
2023/10/03 08:17:53;;;;;;;8.77;4.40;;;;;;;;;;6093684;23;20037;-77
2023/10/03 08:20:23;;;;;;;13.45;4.93;;;;;;;;;;6068719;23;20029;-81
2023/10/03 08:22:56;;;;;;;9.88;4.32;;;;;;;;;;6069354;23;20234;-77
2023/10/03 08:25:25;;;;;;;9.18;4.75;;;;;;;;;;6093161;23;20380;-79
2023/10/03 08:27:58;;;;;;;14.35;4.20;;;;;;;;;;6072041;23;20098;-79
2023/10/03 08:30:43;;;;;;;10.05;4.15;;;;;;;;;;6094379;23;20130;-77
2023/10/03 08:33:09;;;;;;;12.18;4.90;;;;;;;;;;6090467;23;20014;-79
2023/10/03 08:35:39;;;;;;;12.60;4.13;;;;;;;;;;6092768;23;20014;-80
2023/10/03 08:38:13;;;;;;;11.20;4.78;;;;;;;;;;6097584;23;20088;-80
2023/10/03 08:40:49;;;;;;;10.35;4.10;;;;;;;;;;6099523;23;20033;-80
2023/10/03 08:43:30;;;;;;;8.10;4.18;;;;;;;;;;6095936;23;20010;-81
2023/10/03 08:46:00;;;;;;;13.20;3.80;;;;;;;;;;6095436;23;20006;-78
2023/10/03 08:48:32;;;;;;;13.02;4.22;;;;;;;;;;6094506;23;20010;-79
2023/10/03 08:51:02;;;;;;;9.75;3.90;;;;;;;;;;6092276;23;20109;-77
2023/10/03 08:53:32;;;;;;;10.68;3.67;;;;;;;;;;6095035;23;20022;-79
2023/10/03 08:56:20;;;;;;;10.48;4.13;;;;;;;;;;6084052;23;20017;-77
2023/10/03 08:59:06;;;;;;;10.95;3.80;;;;;;;;;;6091785;23;20014;-75
2023/10/03 09:01:45;;;;;;;6.38;3.65;;;;;;;;;;6092029;23;20010;-75
2023/10/03 09:04:17;;;;;;;9.88;4.00;;;;;;;;;;6089350;23;20707;-76
2023/10/03 09:06:51;;;;;;;12.27;4.28;;;;;;;;;;6092738;23;20010;-77
2023/10/03 09:09:53;;;;;;;8.90;3.53;;;;;;;;;;6070202;23;20483;-78
2023/10/03 09:12:50;;;;;;;20.33;4.75;;;;;;;;;;6056576;23;20692;-78
2023/10/03 09:15:32;;;;;;;14.18;6.35;;;;;;;;;;6094255;23;20088;-74
2023/10/03 09:18:03;;;;;;;13.75;4.13;;;;;;;;;;6062345;23;20496;-76
2023/10/03 09:20:42;;;;;;;15.27;4.75;;;;;;;;;;6070181;23;20025;-76
2023/10/03 09:23:09;;;;;;;11.65;4.25;;;;;;;;;;6072953;23;20017;-75
2023/10/03 09:25:57;;;;;;;10.27;4.10;;;;;;;;;;6070429;23;20010;-77
2023/10/03 09:28:43;;;;;;;23.63;14.68;;;;;;;;;;6063814;23;20399;-78
2023/10/03 09:31:22;;;;;;;9.13;3.72;;;;;;;;;;6063318;23;20029;-76
2023/10/03 09:34:03;;;;;;;14.20;4.40;;;;;;;;;;6063642;23;20030;-77
2023/10/03 09:36:35;;;;;;;22.08;5.88;;;;;;;;;;6058511;23;20445;-75
2023/10/03 09:39:06;;;;;;;12.95;4.38;;;;;;;;;;6060999;23;20015;-77
2023/10/03 09:41:40;;;;;;;11.60;4.47;;;;;;;;;;6038021;23;20105;-76
2023/10/03 09:44:10;;;;;;;12.77;4.20;;;;;;;;;;6059838;23;20093;-78
2023/10/03 09:46:54;;;;;;;16.93;5.20;;;;;;;;;;6060678;23;20027;-78
2023/10/03 09:49:26;;;;;;;12.38;5.43;;;;;;;;;;6061068;23;20018;-78
2023/10/03 09:51:55;;;;;;;12.25;4.38;;;;;;;;;;6063738;23;20338;-78
2023/10/03 09:54:40;;;;;;;13.77;5.25;;;;;;;;;;6059667;23;20007;-79
2023/10/03 09:57:18;;;;;;;13.18;4.55;;;;;;;;;;6062709;23;20011;-78
2023/10/03 09:59:46;;;;;;;12.38;5.45;;;;;;;;;;6061341;23;20021;-81
2023/10/03 10:02:37;;;;;;;13.85;5.57;;;;;;;;;;6063465;23;20006;-77
2023/10/03 10:05:19;;;;;;;11.50;5.15;;;;;;;;;;6059691;23;20014;-78
2023/10/03 10:08:15;;;;;;;13.77;5.13;;;;;;;;;;6063898;23;20093;-79
2023/10/03 10:10:41;;;;;;;11.68;4.47;;;;;;;;;;6063334;23;20081;-78
2023/10/03 10:13:26;;;;;;;15.93;5.82;;;;;;;;;;6060831;23;20006;-76
2023/10/03 10:16:25;;;;;;;13.65;5.15;;;;;;;;;;6061822;23;20013;-78
2023/10/03 10:19:12;;;;;;;14.48;5.22;;;;;;;;;;6097202;23;20018;-77
2023/10/03 10:21:59;;;;;;;14.48;5.18;;;;;;;;;;6119493;23;20013;-76
2023/10/03 10:24:40;;;;;;;13.95;5.88;;;;;;;;;;6117453;23;20381;-77
2023/10/03 10:27:27;;;;;;;;;;;;;;;;;;6091376;23;20060;-77
2023/10/03 10:30:16;;;;;;;18.02;5.13;;;;;;;;;;6091702;23;20314;-77
2023/10/03 10:33:22;;;;;;;12.55;5.85;;;;;;;;;;6060367;23;20156;-76
2023/10/03 10:35:54;;;;;;;18.42;6.95;;;;;;;;;;6062348;23;20384;-75
2023/10/03 10:38:40;;;;;;;14.48;6.05;;;;;;;;;;6082067;23;20006;-77
2023/10/03 10:41:22;;;;;;;13.13;5.28;;;;;;;;;;6049171;23;20041;-75
2023/10/03 10:44:16;;;;;;;15.80;6.05;;;;;;;;;;6086247;23;20030;-75
2023/10/03 10:47:04;;;;;;;16.70;5.78;;;;;;;;;;6087511;23;20010;-74
2023/10/03 10:50:00;;;;;;;13.10;5.90;;;;;;;;;;6037071;23;20388;-77
2023/10/03 10:52:30;;;;;;;17.30;7.00;;;;;;;;;;6081180;23;20523;-78
2023/10/03 10:54:59;;;;;;;22.27;9.15;;;;;;;;;;6085683;23;20320;-76
2023/10/03 10:57:38;;;;;;;18.92;5.85;;;;;;;;;;6057265;23;20352;-81
2023/10/03 11:00:16;;;;;;;18.67;7.70;;;;;;;;;;6058378;23;20006;-78
2023/10/03 11:02:44;;;;;;;24.83;7.68;;;;;;;;;;6057756;23;20109;-76
2023/10/03 11:05:13;;;;;;;18.65;6.93;;;;;;;;;;6083826;23;20066;-75
2023/10/03 11:07:54;;;;;;;18.17;6.78;;;;;;;;;;6056689;23;20409;-77
2023/10/03 11:10:33;;;;;;;19.17;7.05;;;;;;;;;;6085037;23;20936;-78
2023/10/03 11:13:05;;;;;;;17.77;7.13;;;;;;;;;;6060051;23;20010;-76
2023/10/03 11:15:35;;;;;;;24.67;8.10;;;;;;;;;;6060976;23;20105;-75
2023/10/03 11:18:01;;;;;;;18.02;7.70;;;;;;;;;;6020796;23;20023;-76
2023/10/03 11:20:28;;;;;;;16.27;6.65;;;;;;;;;;6027074;23;20015;-78
2023/10/03 11:22:55;;;;;;;20.33;7.10;;;;;;;;;;6004433;23;20126;-77
2023/10/03 11:25:22;;;;;;;16.13;6.88;;;;;;;;;;6027387;23;20014;-74
2023/10/03 11:27:51;;;;;;;13.70;6.40;;;;;;;;;;6022183;23;20801;-76
2023/10/03 11:30:22;;;;;;;16.83;7.63;;;;;;;;;;6001723;23;20456;-75
2023/10/03 11:32:48;;;;;;;14.20;6.97;;;;;;;;;;6058026;23;20130;-77
2023/10/03 11:35:21;;;;;;;17.83;5.97;;;;;;;;;;6055708;23;20079;-76
2023/10/03 11:37:51;;;;;;;21.92;6.45;;;;;;;;;;6051763;23;20011;-74
2023/10/03 11:40:22;;;;;;;13.77;6.20;;;;;;;;;;6054839;23;20057;-77
2023/10/03 11:42:49;;;;;;;14.18;5.82;;;;;;;;;;6051394;23;20010;-78
2023/10/03 11:45:20;;;;;;;20.17;6.55;;;;;;;;;;6057479;23;20090;-76
2023/10/03 11:48:17;;;;;;;46.75;7.20;;;;;;;;;;6032183;23;20571;-78
2023/10/03 11:50:45;;;;;;;20.98;5.95;;;;;;;;;;6055720;23;20420;-77
2023/10/03 11:53:12;;;;;;;17.65;5.85;;;;;;;;;;6080368;23;20292;-76
2023/10/03 11:55:40;;;;;;;18.42;6.20;;;;;;;;;;6059341;23;20007;-75
2023/10/03 11:58:10;;;;;;;17.20;6.32;;;;;;;;;;6056846;23;20106;-78
2023/10/03 12:00:37;;;;;;;21.65;7.63;;;;;;;;;;6058010;23;20094;-77
2023/10/03 12:03:09;;;;;;;22.50;7.10;;;;;;;;;;6062648;23;20018;-78
2023/10/03 12:05:39;;;;;;;18.00;6.75;;;;;;;;;;6058224;23;20131;-77
2023/10/03 12:08:06;;;;;;;16.10;5.70;;;;;;;;;;6058919;23;20483;-78
2023/10/03 12:10:36;;;;;;;14.90;5.65;;;;;;;;;;6060858;23;19999;-77
2023/10/03 12:13:03;;;;;;;15.73;6.03;;;;;;;;;;6060332;23;20113;-78
2023/10/03 12:15:32;;;;;;;12.77;6.03;;;;;;;;;;6035829;23;20041;-77
2023/10/03 12:17:59;;;;;;;22.58;6.80;;;;;;;;;;6035944;23;20027;-80
2023/10/03 12:20:25;;;;;;;17.58;6.05;;;;;;;;;;6061569;23;20021;-77
2023/10/03 12:23:01;;;;;;;13.15;5.63;;;;;;;;;;6035426;23;20471;-78
2023/10/03 12:25:31;;;;;;;12.27;5.80;;;;;;;;;;6058507;23;20046;-77
2023/10/03 12:27:57;;;;;;;16.45;5.57;;;;;;;;;;6058074;23;20011;-76
2023/10/03 12:30:25;;;;;;;11.73;5.13;;;;;;;;;;6045144;23;20065;-79
2023/10/03 12:32:53;;;;;;;17.13;5.40;;;;;;;;;;6083919;23;20335;-75
2023/10/03 12:35:19;;;;;;;14.23;6.15;;;;;;;;;;6056566;23;20090;-75
2023/10/03 12:37:48;;;;;;;13.35;5.38;;;;;;;;;;6058844;23;20074;-77
2023/10/03 12:40:18;;;;;;;17.10;7.72;;;;;;;;;;6057805;23;20011;-77
2023/10/03 12:42:48;;;;;;;14.55;6.55;;;;;;;;;;6058232;23;20015;-78
2023/10/03 12:45:29;;;;;;;11.73;5.75;;;;;;;;;;6059104;23;20046;-76
2023/10/03 12:47:57;;;;;;;13.25;5.85;;;;;;;;;;6056145;23;20445;-76
2023/10/03 12:50:28;;;;;;;11.95;5.57;;;;;;;;;;6079784;23;20109;-76
2023/10/03 12:52:56;;;;;;;13.15;6.28;;;;;;;;;;6057272;23;20011;-79
2023/10/03 12:55:27;;;;;;;14.38;5.90;;;;;;;;;;6056297;23;20011;-78
2023/10/03 12:57:56;;;;;;;10.02;5.10;;;;;;;;;;6080167;23;20361;-76
2023/10/03 13:00:23;;;;;;;14.43;5.72;;;;;;;;;;6082909;23;20096;-76
2023/10/03 13:02:51;;;;;;;11.70;5.65;;;;;;;;;;6057978;23;20050;-75
2023/10/03 13:05:22;;;;;;;18.98;5.80;;;;;;;;;;6080018;23;20019;-75
2023/10/03 13:07:53;;;;;;;14.27;5.68;;;;;;;;;;6057121;23;20088;-76
2023/10/03 13:10:26;;;;;;;;;;;;;;;;;;6058487;23;20038;-78
2023/10/03 13:13:04;;;;;;;16.42;5.60;;;;;;;;;;6056461;23;19909;-75
2023/10/03 13:15:35;;;;;;;12.52;5.47;;;;;;;;;;6082049;23;20007;-75
2023/10/03 13:18:05;;;;;;;13.38;6.35;;;;;;;;;;6066255;23;20026;-76
2023/10/03 13:20:42;;;;;;;15.32;8.18;;;;;;;;;;6086697;23;20373;-78
2023/10/03 13:23:12;;;;;;;16.35;8.05;;;;;;;;;;6086510;23;20093;-75
2023/10/03 13:25:39;;;;;;;13.73;5.60;;;;;;;;;;6087521;23;20010;-75
2023/10/03 13:28:10;;;;;;;12.77;4.70;;;;;;;;;;6087950;23;20069;-76
2023/10/03 13:30:38;;;;;;;12.55;5.38;;;;;;;;;;6091581;23;20033;-75
2023/10/03 13:33:07;;;;;;;13.40;6.03;;;;;;;;;;6093166;23;20508;-77
2023/10/03 13:35:35;;;;;;;12.10;5.13;;;;;;;;;;6102979;23;20340;-78
2023/10/03 13:38:03;;;;;;;16.33;5.07;;;;;;;;;;6102701;23;20064;-76
2023/10/03 13:40:30;;;;;;;9.35;5.25;;;;;;;;;;6092312;23;20093;-74
2023/10/03 13:42:59;;;;;;;10.05;5.25;;;;;;;;;;6088501;23;20070;-77
2023/10/03 13:45:26;;;;;;;17.85;5.97;;;;;;;;;;6088853;23;20089;-74
2023/10/03 13:47:53;;;;;;;11.60;5.10;;;;;;;;;;6062174;23;20010;-78
2023/10/03 13:50:20;;;;;;;11.30;4.97;;;;;;;;;;6087703;23;20006;-77
2023/10/03 13:52:46;;;;;;;11.38;5.65;;;;;;;;;;6087453;23;20010;-76
2023/10/03 13:55:18;;;;;;;9.00;5.18;;;;;;;;;;6088787;23;20340;-75
2023/10/03 13:57:50;;;;;;;14.32;5.32;;;;;;;;;;6089051;23;20447;-75
2023/10/03 14:00:16;;;;;;;9.52;5.50;;;;;;;;;;6087377;23;20055;-76
2023/10/03 14:02:48;;;;;;;12.57;5.28;;;;;;;;;;6090456;23;20010;-75
2023/10/03 14:05:14;;;;;;;12.05;5.25;;;;;;;;;;6089194;23;20089;-76
2023/10/03 14:07:40;;;;;;;9.82;5.05;;;;;;;;;;6089265;23;20041;-75
2023/10/03 14:10:06;;;;;;;14.32;5.63;;;;;;;;;;6090079;23;20009;-76
2023/10/03 14:12:33;;;;;;;22.27;6.28;;;;;;;;;;6090385;23;20010;-77
2023/10/03 14:14:59;;;;;;;18.60;5.65;;;;;;;;;;6090118;23;20013;-75
2023/10/03 14:17:25;;;;;;;12.00;5.53;;;;;;;;;;6112746;23;20007;-77
2023/10/03 14:19:55;;;;;;;17.42;5.57;;;;;;;;;;6092870;23;20436;-75
2023/10/03 14:22:45;;;;;;;15.20;5.95;;;;;;;;;;6093198;23;20485;-76
2023/10/03 14:25:17;;;;;;;16.50;5.85;;;;;;;;;;6098369;23;20017;-76
2023/10/03 14:27:50;;;;;;;10.57;5.03;;;;;;;;;;6118366;23;20010;-78
2023/10/03 14:30:22;;;;;;;9.80;5.03;;;;;;;;;;6121018;23;20002;-78
2023/10/03 14:32:50;;;;;;;14.60;5.72;;;;;;;;;;6122017;23;20483;-77
2023/10/03 14:35:18;;;;;;;14.57;5.90;;;;;;;;;;6096095;23;20001;-76
2023/10/03 14:37:48;;;;;;;21.20;9.32;;;;;;;;;;6096575;23;20005;-75
2023/10/03 14:40:18;;;;;;;18.05;7.60;;;;;;;;;;6095040;23;20010;-75
2023/10/03 14:42:51;;;;;;;17.05;5.65;;;;;;;;;;6095401;23;20010;-77
2023/10/03 14:45:19;;;;;;;16.33;6.07;;;;;;;;;;6124147;23;20046;-78
2023/10/03 14:47:45;;;;;;;12.55;5.85;;;;;;;;;;6123220;23;20331;-77
2023/10/03 14:50:14;;;;;;;12.77;5.95;;;;;;;;;;6071247;23;20017;-78
2023/10/03 14:52:40;;;;;;;13.00;5.07;;;;;;;;;;6123279;23;20097;-78
2023/10/03 14:55:06;;;;;;;10.75;5.57;;;;;;;;;;6122995;23;20056;-81